sensor_id;sensor_type;location;lat;lon;timestamp;temperature;humidity
15160;DHT22;7680;48.800;9.680;2023-06-10T00:00:59;16.00;99.90
15160;DHT22;7680;48.800;9.680;2023-06-10T00:03:32;16.00;99.90
15160;DHT22;7680;48.800;9.680;2023-06-10T00:06:06;16.00;99.90
15160;DHT22;7680;48.800;9.680;2023-06-10T00:08:41;16.00;99.90
15160;DHT22;7680;48.800;9.680;2023-06-10T00:11:14;15.90;99.90
15160;DHT22;7680;48.800;9.680;2023-06-10T00:13:47;15.80;99.90
15160;DHT22;7680;48.800;9.680;2023-06-10T00:16:20;15.70;99.90
15160;DHT22;7680;48.800;9.680;2023-06-10T00:18:53;15.70;99.90
15160;DHT22;7680;48.800;9.680;2023-06-10T00:21:33;15.80;99.90
15160;DHT22;7680;48.800;9.680;2023-06-10T00:24:11;15.70;99.90
15160;DHT22;7680;48.800;9.680;2023-06-10T00:26:44;15.60;99.90
15160;DHT22;7680;48.800;9.680;2023-06-10T00:29:19;15.60;99.90
15160;DHT22;7680;48.800;9.680;2023-06-10T00:31:52;15.50;99.90
15160;DHT22;7680;48.800;9.680;2023-06-10T00:34:29;15.60;99.90
15160;DHT22;7680;48.800;9.680;2023-06-10T00:37:02;15.60;99.90
15160;DHT22;7680;48.800;9.680;2023-06-10T00:39:37;15.50;99.90
15160;DHT22;7680;48.800;9.680;2023-06-10T00:42:10;15.40;99.90
15160;DHT22;7680;48.800;9.680;2023-06-10T00:44:43;15.40;99.90
15160;DHT22;7680;48.800;9.680;2023-06-10T00:47:16;15.30;99.90
15160;DHT22;7680;48.800;9.680;2023-06-10T00:49:50;15.40;99.90
15160;DHT22;7680;48.800;9.680;2023-06-10T00:52:25;15.30;99.90
15160;DHT22;7680;48.800;9.680;2023-06-10T00:55:02;15.20;99.90
15160;DHT22;7680;48.800;9.680;2023-06-10T00:57:36;15.20;99.90
15160;DHT22;7680;48.800;9.680;2023-06-10T01:00:11;15.10;99.90
15160;DHT22;7680;48.800;9.680;2023-06-10T01:02:45;15.10;99.90
15160;DHT22;7680;48.800;9.680;2023-06-10T01:05:18;15.10;99.90
15160;DHT22;7680;48.800;9.680;2023-06-10T01:07:59;15.00;99.90
15160;DHT22;7680;48.800;9.680;2023-06-10T01:10:41;15.00;99.90
15160;DHT22;7680;48.800;9.680;2023-06-10T01:13:16;15.00;99.90
15160;DHT22;7680;48.800;9.680;2023-06-10T01:15:50;15.00;99.90
15160;DHT22;7680;48.800;9.680;2023-06-10T01:18:29;15.00;99.90
15160;DHT22;7680;48.800;9.680;2023-06-10T01:21:04;14.80;99.90
15160;DHT22;7680;48.800;9.680;2023-06-10T01:23:40;14.80;99.90
15160;DHT22;7680;48.800;9.680;2023-06-10T01:26:14;14.90;99.90
15160;DHT22;7680;48.800;9.680;2023-06-10T01:28:50;14.90;99.90
15160;DHT22;7680;48.800;9.680;2023-06-10T01:31:32;14.80;99.90
15160;DHT22;7680;48.800;9.680;2023-06-10T01:34:13;14.80;99.90
15160;DHT22;7680;48.800;9.680;2023-06-10T01:36:48;14.70;99.90
15160;DHT22;7680;48.800;9.680;2023-06-10T01:39:24;14.80;99.90
15160;DHT22;7680;48.800;9.680;2023-06-10T01:41:58;14.80;99.90
15160;DHT22;7680;48.800;9.680;2023-06-10T01:44:31;14.80;99.90
15160;DHT22;7680;48.800;9.680;2023-06-10T01:47:05;14.80;99.90
15160;DHT22;7680;48.800;9.680;2023-06-10T01:49:38;14.80;99.90
15160;DHT22;7680;48.800;9.680;2023-06-10T01:52:12;14.80;99.90
15160;DHT22;7680;48.800;9.680;2023-06-10T01:54:46;14.70;99.90
15160;DHT22;7680;48.800;9.680;2023-06-10T01:57:20;14.80;99.90
15160;DHT22;7680;48.800;9.680;2023-06-10T01:59:53;14.80;99.90
15160;DHT22;7680;48.800;9.680;2023-06-10T02:02:26;14.80;99.90
15160;DHT22;7680;48.800;9.680;2023-06-10T02:04:59;14.70;99.90
15160;DHT22;7680;48.800;9.680;2023-06-10T02:07:32;14.70;99.90
15160;DHT22;7680;48.800;9.680;2023-06-10T02:10:08;14.70;99.90
15160;DHT22;7680;48.800;9.680;2023-06-10T02:12:41;14.70;99.90
15160;DHT22;7680;48.800;9.680;2023-06-10T02:15:14;14.70;99.90
15160;DHT22;7680;48.800;9.680;2023-06-10T02:17:47;14.60;99.90
15160;DHT22;7680;48.800;9.680;2023-06-10T02:20:21;14.70;99.90
15160;DHT22;7680;48.800;9.680;2023-06-10T02:22:54;14.70;99.90
15160;DHT22;7680;48.800;9.680;2023-06-10T02:25:28;14.70;99.90
15160;DHT22;7680;48.800;9.680;2023-06-10T02:28:02;14.70;99.90
15160;DHT22;7680;48.800;9.680;2023-06-10T02:30:38;14.60;99.90
15160;DHT22;7680;48.800;9.680;2023-06-10T02:33:11;14.50;99.90
15160;DHT22;7680;48.800;9.680;2023-06-10T02:35:45;14.50;99.90
15160;DHT22;7680;48.800;9.680;2023-06-10T02:38:18;14.50;99.90
15160;DHT22;7680;48.800;9.680;2023-06-10T02:40:53;14.50;99.90
15160;DHT22;7680;48.800;9.680;2023-06-10T02:43:26;14.40;99.90
15160;DHT22;7680;48.800;9.680;2023-06-10T02:45:59;14.40;99.90
15160;DHT22;7680;48.800;9.680;2023-06-10T02:48:38;14.40;99.90
15160;DHT22;7680;48.800;9.680;2023-06-10T02:51:13;14.40;99.90
15160;DHT22;7680;48.800;9.680;2023-06-10T02:53:46;14.40;99.90
15160;DHT22;7680;48.800;9.680;2023-06-10T02:56:20;14.40;99.90
15160;DHT22;7680;48.800;9.680;2023-06-10T02:58:53;14.30;99.90
15160;DHT22;7680;48.800;9.680;2023-06-10T03:01:27;14.30;99.90
15160;DHT22;7680;48.800;9.680;2023-06-10T03:04:01;14.30;99.90
15160;DHT22;7680;48.800;9.680;2023-06-10T03:06:34;14.30;99.90
15160;DHT22;7680;48.800;9.680;2023-06-10T03:09:07;14.30;99.90
15160;DHT22;7680;48.800;9.680;2023-06-10T03:11:42;14.20;99.90
15160;DHT22;7680;48.800;9.680;2023-06-10T03:14:15;14.20;99.90
15160;DHT22;7680;48.800;9.680;2023-06-10T03:16:48;14.10;99.90
15160;DHT22;7680;48.800;9.680;2023-06-10T03:19:21;14.10;99.90
15160;DHT22;7680;48.800;9.680;2023-06-10T03:22:07;14.10;99.90
15160;DHT22;7680;48.800;9.680;2023-06-10T03:24:41;14.10;99.90
15160;DHT22;7680;48.800;9.680;2023-06-10T03:27:16;14.20;99.90
15160;DHT22;7680;48.800;9.680;2023-06-10T03:29:50;14.10;99.90
15160;DHT22;7680;48.800;9.680;2023-06-10T03:32:23;14.00;99.90
15160;DHT22;7680;48.800;9.680;2023-06-10T03:34:56;14.00;99.90
15160;DHT22;7680;48.800;9.680;2023-06-10T03:37:29;14.10;99.90
15160;DHT22;7680;48.800;9.680;2023-06-10T03:40:03;14.10;99.90
15160;DHT22;7680;48.800;9.680;2023-06-10T03:42:38;14.20;99.90
15160;DHT22;7680;48.800;9.680;2023-06-10T03:45:11;14.20;99.90
15160;DHT22;7680;48.800;9.680;2023-06-10T03:47:44;14.30;99.90
15160;DHT22;7680;48.800;9.680;2023-06-10T03:50:20;14.30;99.90
15160;DHT22;7680;48.800;9.680;2023-06-10T03:52:55;14.40;99.90
15160;DHT22;7680;48.800;9.680;2023-06-10T03:55:28;14.40;99.90
15160;DHT22;7680;48.800;9.680;2023-06-10T03:58:04;14.50;99.90
15160;DHT22;7680;48.800;9.680;2023-06-10T04:00:37;14.50;99.90
15160;DHT22;7680;48.800;9.680;2023-06-10T04:03:13;14.60;99.90
15160;DHT22;7680;48.800;9.680;2023-06-10T04:05:47;14.60;99.90
15160;DHT22;7680;48.800;9.680;2023-06-10T04:08:22;14.60;99.90
15160;DHT22;7680;48.800;9.680;2023-06-10T04:10:55;14.60;99.90
15160;DHT22;7680;48.800;9.680;2023-06-10T04:13:30;14.70;99.90
15160;DHT22;7680;48.800;9.680;2023-06-10T04:16:04;14.70;99.90
15160;DHT22;7680;48.800;9.680;2023-06-10T04:18:37;14.70;99.90
15160;DHT22;7680;48.800;9.680;2023-06-10T04:21:10;14.70;99.90
15160;DHT22;7680;48.800;9.680;2023-06-10T04:23:43;14.70;99.90
15160;DHT22;7680;48.800;9.680;2023-06-10T04:26:17;14.80;99.90
15160;DHT22;7680;48.800;9.680;2023-06-10T04:28:51;14.80;99.90
15160;DHT22;7680;48.800;9.680;2023-06-10T04:31:24;14.80;99.90
15160;DHT22;7680;48.800;9.680;2023-06-10T04:33:57;14.90;99.90
15160;DHT22;7680;48.800;9.680;2023-06-10T04:36:32;14.90;99.90
15160;DHT22;7680;48.800;9.680;2023-06-10T04:39:05;15.00;99.90
15160;DHT22;7680;48.800;9.680;2023-06-10T04:41:38;15.10;99.90
15160;DHT22;7680;48.800;9.680;2023-06-10T04:44:13;15.20;99.90
15160;DHT22;7680;48.800;9.680;2023-06-10T04:46:46;15.70;99.90
15160;DHT22;7680;48.800;9.680;2023-06-10T04:49:19;16.30;99.90
15160;DHT22;7680;48.800;9.680;2023-06-10T04:51:52;16.90;99.90
15160;DHT22;7680;48.800;9.680;2023-06-10T04:54:25;17.30;99.90
15160;DHT22;7680;48.800;9.680;2023-06-10T04:56:58;17.70;99.90
15160;DHT22;7680;48.800;9.680;2023-06-10T04:59:33;18.10;99.90
15160;DHT22;7680;48.800;9.680;2023-06-10T05:02:09;18.50;99.90
15160;DHT22;7680;48.800;9.680;2023-06-10T05:04:42;18.70;99.90
15160;DHT22;7680;48.800;9.680;2023-06-10T05:07:15;19.00;99.90
15160;DHT22;7680;48.800;9.680;2023-06-10T05:09:48;19.30;99.90
15160;DHT22;7680;48.800;9.680;2023-06-10T05:12:21;19.60;99.90
15160;DHT22;7680;48.800;9.680;2023-06-10T05:14:56;20.10;99.90
15160;DHT22;7680;48.800;9.680;2023-06-10T05:17:29;20.40;99.90
15160;DHT22;7680;48.800;9.680;2023-06-10T05:20:03;20.70;99.90
15160;DHT22;7680;48.800;9.680;2023-06-10T05:22:38;20.90;99.90
15160;DHT22;7680;48.800;9.680;2023-06-10T05:25:11;21.10;99.90
15160;DHT22;7680;48.800;9.680;2023-06-10T05:27:44;21.30;99.90
15160;DHT22;7680;48.800;9.680;2023-06-10T05:30:18;21.50;99.70
15160;DHT22;7680;48.800;9.680;2023-06-10T05:32:51;21.90;98.90
15160;DHT22;7680;48.800;9.680;2023-06-10T05:35:25;22.30;97.70
15160;DHT22;7680;48.800;9.680;2023-06-10T05:37:58;22.30;97.60
15160;DHT22;7680;48.800;9.680;2023-06-10T05:40:34;22.60;96.90
15160;DHT22;7680;48.800;9.680;2023-06-10T05:43:07;22.90;96.40
15160;DHT22;7680;48.800;9.680;2023-06-10T05:45:42;22.90;96.00
15160;DHT22;7680;48.800;9.680;2023-06-10T05:48:15;23.30;95.40
15160;DHT22;7680;48.800;9.680;2023-06-10T05:50:49;23.30;95.40
15160;DHT22;7680;48.800;9.680;2023-06-10T05:53:22;23.60;95.00
15160;DHT22;7680;48.800;9.680;2023-06-10T05:55:56;23.50;95.00
15160;DHT22;7680;48.800;9.680;2023-06-10T05:58:30;23.70;94.80
15160;DHT22;7680;48.800;9.680;2023-06-10T06:01:04;23.80;95.10
15160;DHT22;7680;48.800;9.680;2023-06-10T06:03:37;24.00;94.20
15160;DHT22;7680;48.800;9.680;2023-06-10T06:06:11;23.90;94.50
15160;DHT22;7680;48.800;9.680;2023-06-10T06:08:44;24.20;94.20
15160;DHT22;7680;48.800;9.680;2023-06-10T06:11:17;24.30;93.50
15160;DHT22;7680;48.800;9.680;2023-06-10T06:13:50;24.40;93.50
15160;DHT22;7680;48.800;9.680;2023-06-10T06:16:25;24.50;93.20
15160;DHT22;7680;48.800;9.680;2023-06-10T06:18:59;24.50;93.20
15160;DHT22;7680;48.800;9.680;2023-06-10T06:21:32;24.70;93.40
15160;DHT22;7680;48.800;9.680;2023-06-10T06:24:05;25.20;92.60
15160;DHT22;7680;48.800;9.680;2023-06-10T06:26:39;25.40;91.80
15160;DHT22;7680;48.800;9.680;2023-06-10T06:29:12;25.30;92.40
15160;DHT22;7680;48.800;9.680;2023-06-10T06:31:47;25.60;91.90
15160;DHT22;7680;48.800;9.680;2023-06-10T06:34:20;25.70;91.30
15160;DHT22;7680;48.800;9.680;2023-06-10T06:36:53;25.70;91.40
15160;DHT22;7680;48.800;9.680;2023-06-10T06:39:26;26.10;91.40
15160;DHT22;7680;48.800;9.680;2023-06-10T06:41:59;26.40;90.60
15160;DHT22;7680;48.800;9.680;2023-06-10T06:44:32;26.40;90.60
15160;DHT22;7680;48.800;9.680;2023-06-10T06:47:07;26.70;90.20
15160;DHT22;7680;48.800;9.680;2023-06-10T06:49:40;26.60;90.00
15160;DHT22;7680;48.800;9.680;2023-06-10T06:52:14;26.80;89.20
15160;DHT22;7680;48.800;9.680;2023-06-10T06:54:47;27.10;88.50
15160;DHT22;7680;48.800;9.680;2023-06-10T06:57:21;27.40;88.00
15160;DHT22;7680;48.800;9.680;2023-06-10T06:59:54;27.50;87.90
15160;DHT22;7680;48.800;9.680;2023-06-10T07:02:29;27.80;86.80
15160;DHT22;7680;48.800;9.680;2023-06-10T07:05:04;27.90;86.20
15160;DHT22;7680;48.800;9.680;2023-06-10T07:07:38;28.00;85.80
15160;DHT22;7680;48.800;9.680;2023-06-10T07:10:11;28.10;86.00
15160;DHT22;7680;48.800;9.680;2023-06-10T07:12:44;28.80;85.00
15160;DHT22;7680;48.800;9.680;2023-06-10T07:15:18;28.90;82.30
15160;DHT22;7680;48.800;9.680;2023-06-10T07:17:52;28.80;83.10
15160;DHT22;7680;48.800;9.680;2023-06-10T07:20:25;29.10;81.70
15160;DHT22;7680;48.800;9.680;2023-06-10T07:22:58;29.30;81.00
15160;DHT22;7680;48.800;9.680;2023-06-10T07:25:31;29.40;81.20
15160;DHT22;7680;48.800;9.680;2023-06-10T07:28:05;29.70;79.70
15160;DHT22;7680;48.800;9.680;2023-06-10T07:30:38;30.10;78.70
15160;DHT22;7680;48.800;9.680;2023-06-10T07:33:12;29.80;79.60
15160;DHT22;7680;48.800;9.680;2023-06-10T07:35:45;29.70;79.20
15160;DHT22;7680;48.800;9.680;2023-06-10T07:38:18;29.80;78.70
15160;DHT22;7680;48.800;9.680;2023-06-10T07:40:52;29.70;78.60
15160;DHT22;7680;48.800;9.680;2023-06-10T07:43:25;29.60;78.80
15160;DHT22;7680;48.800;9.680;2023-06-10T07:45:58;29.50;79.40
15160;DHT22;7680;48.800;9.680;2023-06-10T07:48:33;29.50;79.10
15160;DHT22;7680;48.800;9.680;2023-06-10T07:51:06;29.50;79.20
15160;DHT22;7680;48.800;9.680;2023-06-10T07:53:39;29.30;79.60
15160;DHT22;7680;48.800;9.680;2023-06-10T07:56:12;29.20;80.30
15160;DHT22;7680;48.800;9.680;2023-06-10T07:58:45;29.50;79.10
15160;DHT22;7680;48.800;9.680;2023-06-10T08:01:19;30.00;77.80
15160;DHT22;7680;48.800;9.680;2023-06-10T08:03:53;29.90;78.60
15160;DHT22;7680;48.800;9.680;2023-06-10T08:06:26;30.00;77.70
15160;DHT22;7680;48.800;9.680;2023-06-10T08:08:59;29.90;77.40
15160;DHT22;7680;48.800;9.680;2023-06-10T08:11:32;29.70;77.90
15160;DHT22;7680;48.800;9.680;2023-06-10T08:14:06;30.10;77.50
15160;DHT22;7680;48.800;9.680;2023-06-10T08:16:39;29.90;78.20
15160;DHT22;7680;48.800;9.680;2023-06-10T08:19:13;30.20;77.50
15160;DHT22;7680;48.800;9.680;2023-06-10T08:21:46;30.20;77.60
15160;DHT22;7680;48.800;9.680;2023-06-10T08:24:19;30.40;75.30
15160;DHT22;7680;48.800;9.680;2023-06-10T08:26:53;29.90;75.80
15160;DHT22;7680;48.800;9.680;2023-06-10T08:29:26;29.80;73.50
15160;DHT22;7680;48.800;9.680;2023-06-10T08:32:01;29.00;75.00
15160;DHT22;7680;48.800;9.680;2023-06-10T08:34:35;29.20;74.60
15160;DHT22;7680;48.800;9.680;2023-06-10T08:37:09;29.10;74.70
15160;DHT22;7680;48.800;9.680;2023-06-10T08:39:42;29.00;74.90
15160;DHT22;7680;48.800;9.680;2023-06-10T08:42:23;28.90;74.80
15160;DHT22;7680;48.800;9.680;2023-06-10T08:45:01;29.50;73.50
15160;DHT22;7680;48.800;9.680;2023-06-10T08:47:35;29.70;72.20
15160;DHT22;7680;48.800;9.680;2023-06-10T08:50:10;29.80;73.50
15160;DHT22;7680;48.800;9.680;2023-06-10T08:52:44;29.20;75.70
15160;DHT22;7680;48.800;9.680;2023-06-10T08:55:25;29.60;74.10
15160;DHT22;7680;48.800;9.680;2023-06-10T08:58:03;29.10;74.90
15160;DHT22;7680;48.800;9.680;2023-06-10T09:00:37;29.00;76.10
15160;DHT22;7680;48.800;9.680;2023-06-10T09:03:10;29.20;76.20
15160;DHT22;7680;48.800;9.680;2023-06-10T09:05:45;29.00;76.40
15160;DHT22;7680;48.800;9.680;2023-06-10T09:08:18;28.50;76.90
15160;DHT22;7680;48.800;9.680;2023-06-10T09:10:51;28.40;76.60
15160;DHT22;7680;48.800;9.680;2023-06-10T09:13:24;28.30;77.30
15160;DHT22;7680;48.800;9.680;2023-06-10T09:15:57;28.30;76.90
15160;DHT22;7680;48.800;9.680;2023-06-10T09:18:32;28.50;76.30
15160;DHT22;7680;48.800;9.680;2023-06-10T09:21:07;29.00;76.50
15160;DHT22;7680;48.800;9.680;2023-06-10T09:23:41;29.60;75.30
15160;DHT22;7680;48.800;9.680;2023-06-10T09:26:15;29.40;74.70
15160;DHT22;7680;48.800;9.680;2023-06-10T09:28:49;28.60;75.80
15160;DHT22;7680;48.800;9.680;2023-06-10T09:31:22;28.90;74.70
15160;DHT22;7680;48.800;9.680;2023-06-10T09:34:05;28.10;75.90
15160;DHT22;7680;48.800;9.680;2023-06-10T09:36:40;28.30;76.70
15160;DHT22;7680;48.800;9.680;2023-06-10T09:39:15;28.20;76.90
15160;DHT22;7680;48.800;9.680;2023-06-10T09:41:49;28.00;76.60
15160;DHT22;7680;48.800;9.680;2023-06-10T09:44:23;28.00;77.50
15160;DHT22;7680;48.800;9.680;2023-06-10T09:46:57;28.10;79.00
15160;DHT22;7680;48.800;9.680;2023-06-10T09:49:31;28.80;77.40
15160;DHT22;7680;48.800;9.680;2023-06-10T09:52:06;29.00;74.90
15160;DHT22;7680;48.800;9.680;2023-06-10T09:54:39;28.80;73.60
15160;DHT22;7680;48.800;9.680;2023-06-10T09:57:12;28.90;74.50
15160;DHT22;7680;48.800;9.680;2023-06-10T09:59:46;28.60;73.10
15160;DHT22;7680;48.800;9.680;2023-06-10T10:02:19;28.50;73.70
15160;DHT22;7680;48.800;9.680;2023-06-10T10:04:52;28.80;74.80
15160;DHT22;7680;48.800;9.680;2023-06-10T10:07:27;28.40;72.90
15160;DHT22;7680;48.800;9.680;2023-06-10T10:10:00;27.90;75.30
15160;DHT22;7680;48.800;9.680;2023-06-10T10:12:36;28.40;75.60
15160;DHT22;7680;48.800;9.680;2023-06-10T10:15:11;28.70;74.90
15160;DHT22;7680;48.800;9.680;2023-06-10T10:17:48;28.90;74.00
15160;DHT22;7680;48.800;9.680;2023-06-10T10:20:27;28.50;74.50
15160;DHT22;7680;48.800;9.680;2023-06-10T10:23:04;27.90;74.80
15160;DHT22;7680;48.800;9.680;2023-06-10T10:25:40;27.70;77.00
15160;DHT22;7680;48.800;9.680;2023-06-10T10:28:15;27.90;77.00
15160;DHT22;7680;48.800;9.680;2023-06-10T10:30:53;28.10;77.00
15160;DHT22;7680;48.800;9.680;2023-06-10T10:33:33;28.10;77.40
15160;DHT22;7680;48.800;9.680;2023-06-10T10:36:12;27.60;78.20
15160;DHT22;7680;48.800;9.680;2023-06-10T10:38:47;27.30;79.50
15160;DHT22;7680;48.800;9.680;2023-06-10T10:41:24;27.30;78.80
15160;DHT22;7680;48.800;9.680;2023-06-10T10:43:59;27.40;78.40
15160;DHT22;7680;48.800;9.680;2023-06-10T10:46:42;27.50;76.90
15160;DHT22;7680;48.800;9.680;2023-06-10T10:49:17;27.00;75.90
15160;DHT22;7680;48.800;9.680;2023-06-10T10:52:01;26.80;77.50
15160;DHT22;7680;48.800;9.680;2023-06-10T10:54:43;26.90;78.20
15160;DHT22;7680;48.800;9.680;2023-06-10T10:57:19;26.90;78.70
15160;DHT22;7680;48.800;9.680;2023-06-10T10:59:54;26.90;80.00
15160;DHT22;7680;48.800;9.680;2023-06-10T11:02:35;27.10;79.50
15160;DHT22;7680;48.800;9.680;2023-06-10T11:05:13;27.20;78.50
15160;DHT22;7680;48.800;9.680;2023-06-10T11:07:53;27.70;78.70
15160;DHT22;7680;48.800;9.680;2023-06-10T11:10:33;28.20;77.10
15160;DHT22;7680;48.800;9.680;2023-06-10T11:13:08;27.90;76.90
15160;DHT22;7680;48.800;9.680;2023-06-10T11:15:45;28.10;77.80
15160;DHT22;7680;48.800;9.680;2023-06-10T11:18:23;28.20;76.80
15160;DHT22;7680;48.800;9.680;2023-06-10T11:20:59;28.10;74.70
15160;DHT22;7680;48.800;9.680;2023-06-10T11:23:38;27.80;76.10
15160;DHT22;7680;48.800;9.680;2023-06-10T11:26:20;27.70;76.60
15160;DHT22;7680;48.800;9.680;2023-06-10T11:29:08;27.70;77.50
15160;DHT22;7680;48.800;9.680;2023-06-10T11:31:49;27.70;76.00
15160;DHT22;7680;48.800;9.680;2023-06-10T11:34:24;27.50;74.00
15160;DHT22;7680;48.800;9.680;2023-06-10T11:36:59;27.60;74.00
15160;DHT22;7680;48.800;9.680;2023-06-10T11:39:32;27.50;75.10
15160;DHT22;7680;48.800;9.680;2023-06-10T11:42:07;27.30;75.20
15160;DHT22;7680;48.800;9.680;2023-06-10T11:44:48;27.30;75.20
15160;DHT22;7680;48.800;9.680;2023-06-10T11:47:21;27.40;73.90
15160;DHT22;7680;48.800;9.680;2023-06-10T11:49:56;27.20;73.90
15160;DHT22;7680;48.800;9.680;2023-06-10T11:52:30;27.10;74.10
15160;DHT22;7680;48.800;9.680;2023-06-10T11:55:06;27.30;74.90
15160;DHT22;7680;48.800;9.680;2023-06-10T11:57:43;27.40;74.60
15160;DHT22;7680;48.800;9.680;2023-06-10T12:00:17;27.30;75.00
15160;DHT22;7680;48.800;9.680;2023-06-10T12:02:56;27.10;75.50
15160;DHT22;7680;48.800;9.680;2023-06-10T12:05:30;27.20;73.40
15160;DHT22;7680;48.800;9.680;2023-06-10T12:08:09;27.20;73.50
15160;DHT22;7680;48.800;9.680;2023-06-10T12:10:43;27.50;74.70
15160;DHT22;7680;48.800;9.680;2023-06-10T12:13:18;27.50;73.80
15160;DHT22;7680;48.800;9.680;2023-06-10T12:15:51;28.00;73.80
15160;DHT22;7680;48.800;9.680;2023-06-10T12:18:24;28.30;71.30
15160;DHT22;7680;48.800;9.680;2023-06-10T12:20:57;28.20;73.60
15160;DHT22;7680;48.800;9.680;2023-06-10T12:23:31;27.90;74.60
15160;DHT22;7680;48.800;9.680;2023-06-10T12:26:04;28.00;75.50
15160;DHT22;7680;48.800;9.680;2023-06-10T12:28:39;28.00;74.30
15160;DHT22;7680;48.800;9.680;2023-06-10T12:31:12;27.80;75.80
15160;DHT22;7680;48.800;9.680;2023-06-10T12:33:46;27.80;75.50
15160;DHT22;7680;48.800;9.680;2023-06-10T12:36:20;27.70;74.80
15160;DHT22;7680;48.800;9.680;2023-06-10T12:39:02;27.50;74.10
15160;DHT22;7680;48.800;9.680;2023-06-10T12:41:37;27.40;74.90
15160;DHT22;7680;48.800;9.680;2023-06-10T12:44:11;27.50;74.50
15160;DHT22;7680;48.800;9.680;2023-06-10T12:46:44;27.70;75.10
15160;DHT22;7680;48.800;9.680;2023-06-10T12:49:20;28.00;73.00
15160;DHT22;7680;48.800;9.680;2023-06-10T12:51:54;27.90;72.30
15160;DHT22;7680;48.800;9.680;2023-06-10T12:54:27;27.70;73.00
15160;DHT22;7680;48.800;9.680;2023-06-10T12:57:00;28.00;73.30
15160;DHT22;7680;48.800;9.680;2023-06-10T12:59:35;28.20;73.40
15160;DHT22;7680;48.800;9.680;2023-06-10T13:02:08;28.30;74.10
15160;DHT22;7680;48.800;9.680;2023-06-10T13:04:43;28.10;72.80
15160;DHT22;7680;48.800;9.680;2023-06-10T13:07:17;27.90;73.20
15160;DHT22;7680;48.800;9.680;2023-06-10T13:09:50;27.90;73.30
15160;DHT22;7680;48.800;9.680;2023-06-10T13:12:25;27.90;74.50
15160;DHT22;7680;48.800;9.680;2023-06-10T13:15:19;27.80;74.10
15160;DHT22;7680;48.800;9.680;2023-06-10T13:17:52;27.80;73.60
15160;DHT22;7680;48.800;9.680;2023-06-10T13:20:25;27.70;73.00
15160;DHT22;7680;48.800;9.680;2023-06-10T13:22:58;27.70;72.50
15160;DHT22;7680;48.800;9.680;2023-06-10T13:25:31;27.70;72.30
15160;DHT22;7680;48.800;9.680;2023-06-10T13:28:05;27.80;75.50
15160;DHT22;7680;48.800;9.680;2023-06-10T13:30:40;27.90;72.50
15160;DHT22;7680;48.800;9.680;2023-06-10T13:33:13;27.90;75.30
15160;DHT22;7680;48.800;9.680;2023-06-10T13:35:46;27.80;74.70
15160;DHT22;7680;48.800;9.680;2023-06-10T13:38:19;27.60;75.50
15160;DHT22;7680;48.800;9.680;2023-06-10T13:40:52;27.70;76.10
15160;DHT22;7680;48.800;9.680;2023-06-10T13:43:25;27.70;74.80
15160;DHT22;7680;48.800;9.680;2023-06-10T13:46:00;27.60;75.80
15160;DHT22;7680;48.800;9.680;2023-06-10T13:48:33;27.40;74.40
15160;DHT22;7680;48.800;9.680;2023-06-10T13:51:07;27.10;74.90
15160;DHT22;7680;48.800;9.680;2023-06-10T13:53:40;27.00;75.30
15160;DHT22;7680;48.800;9.680;2023-06-10T13:56:14;27.00;75.30
15160;DHT22;7680;48.800;9.680;2023-06-10T13:58:47;27.10;76.10
15160;DHT22;7680;48.800;9.680;2023-06-10T14:01:22;27.30;76.50
15160;DHT22;7680;48.800;9.680;2023-06-10T14:03:55;27.40;74.80
15160;DHT22;7680;48.800;9.680;2023-06-10T14:06:29;27.40;75.10
15160;DHT22;7680;48.800;9.680;2023-06-10T14:09:04;27.50;75.00
15160;DHT22;7680;48.800;9.680;2023-06-10T14:11:37;27.40;73.10
15160;DHT22;7680;48.800;9.680;2023-06-10T14:14:10;27.40;73.30
15160;DHT22;7680;48.800;9.680;2023-06-10T14:16:44;27.30;72.60
15160;DHT22;7680;48.800;9.680;2023-06-10T14:19:17;27.30;72.90
15160;DHT22;7680;48.800;9.680;2023-06-10T14:21:51;27.40;72.50
15160;DHT22;7680;48.800;9.680;2023-06-10T14:24:25;27.50;72.30
15160;DHT22;7680;48.800;9.680;2023-06-10T14:26:58;27.40;74.50
15160;DHT22;7680;48.800;9.680;2023-06-10T14:29:31;27.30;75.30
15160;DHT22;7680;48.800;9.680;2023-06-10T14:32:07;27.30;75.60
15160;DHT22;7680;48.800;9.680;2023-06-10T14:34:40;27.30;75.50
15160;DHT22;7680;48.800;9.680;2023-06-10T14:37:15;27.50;73.80
15160;DHT22;7680;48.800;9.680;2023-06-10T14:39:49;27.50;73.40
15160;DHT22;7680;48.800;9.680;2023-06-10T14:42:22;27.40;74.70
15160;DHT22;7680;48.800;9.680;2023-06-10T14:44:55;27.10;74.60
15160;DHT22;7680;48.800;9.680;2023-06-10T14:47:29;26.90;75.90
15160;DHT22;7680;48.800;9.680;2023-06-10T14:50:03;26.90;76.90
15160;DHT22;7680;48.800;9.680;2023-06-10T14:52:37;26.90;76.00
15160;DHT22;7680;48.800;9.680;2023-06-10T14:55:10;27.00;76.90
15160;DHT22;7680;48.800;9.680;2023-06-10T14:57:43;27.00;76.00
15160;DHT22;7680;48.800;9.680;2023-06-10T15:00:17;27.10;76.40
15160;DHT22;7680;48.800;9.680;2023-06-10T15:02:55;27.20;76.00
15160;DHT22;7680;48.800;9.680;2023-06-10T15:05:29;27.10;74.50
15160;DHT22;7680;48.800;9.680;2023-06-10T15:08:03;27.20;74.70
15160;DHT22;7680;48.800;9.680;2023-06-10T15:10:36;27.30;72.80
15160;DHT22;7680;48.800;9.680;2023-06-10T15:13:09;27.40;73.60
15160;DHT22;7680;48.800;9.680;2023-06-10T15:15:42;27.30;74.10
15160;DHT22;7680;48.800;9.680;2023-06-10T15:18:18;27.40;73.80
15160;DHT22;7680;48.800;9.680;2023-06-10T15:20:51;27.30;74.70
15160;DHT22;7680;48.800;9.680;2023-06-10T15:23:24;27.30;74.70
15160;DHT22;7680;48.800;9.680;2023-06-10T15:25:57;27.30;73.90
15160;DHT22;7680;48.800;9.680;2023-06-10T15:28:31;27.40;73.90
15160;DHT22;7680;48.800;9.680;2023-06-10T15:31:04;27.40;73.90
15160;DHT22;7680;48.800;9.680;2023-06-10T15:33:38;27.60;73.10
15160;DHT22;7680;48.800;9.680;2023-06-10T15:36:12;27.50;72.30
15160;DHT22;7680;48.800;9.680;2023-06-10T15:38:45;27.40;72.80
15160;DHT22;7680;48.800;9.680;2023-06-10T15:41:18;27.30;73.40
15160;DHT22;7680;48.800;9.680;2023-06-10T15:43:52;27.40;73.50
15160;DHT22;7680;48.800;9.680;2023-06-10T15:46:25;27.40;73.40
15160;DHT22;7680;48.800;9.680;2023-06-10T15:49:00;27.30;73.90
15160;DHT22;7680;48.800;9.680;2023-06-10T15:51:33;27.30;74.50
15160;DHT22;7680;48.800;9.680;2023-06-10T15:54:06;27.20;75.60
15160;DHT22;7680;48.800;9.680;2023-06-10T15:56:40;27.20;74.90
15160;DHT22;7680;48.800;9.680;2023-06-10T15:59:13;27.30;74.50
15160;DHT22;7680;48.800;9.680;2023-06-10T16:01:46;27.50;73.10
15160;DHT22;7680;48.800;9.680;2023-06-10T16:04:21;27.50;74.40
15160;DHT22;7680;48.800;9.680;2023-06-10T16:06:55;27.40;75.00
15160;DHT22;7680;48.800;9.680;2023-06-10T16:09:28;27.40;74.20
15160;DHT22;7680;48.800;9.680;2023-06-10T16:12:02;27.40;74.10
15160;DHT22;7680;48.800;9.680;2023-06-10T16:14:35;27.40;74.00
15160;DHT22;7680;48.800;9.680;2023-06-10T16:17:08;27.40;74.20
15160;DHT22;7680;48.800;9.680;2023-06-10T16:19:43;27.30;73.00
15160;DHT22;7680;48.800;9.680;2023-06-10T16:22:16;27.30;74.20
15160;DHT22;7680;48.800;9.680;2023-06-10T16:24:49;27.10;74.40
15160;DHT22;7680;48.800;9.680;2023-06-10T16:27:22;27.10;75.60
15160;DHT22;7680;48.800;9.680;2023-06-10T16:29:57;27.10;75.20